Colorado Springs (COS/KCOS)

Map

Information

Location
Colorado Springs, CO
Local Time
12:17 / 12:17 pm
GMT Time
18:17 / 6:17 pm
Gates
22
No FAA reported delays
METAR KCOS 201754Z 18025G32KT 10SM FEW100 16/M02 A3005 RMK AO2 PK WND 19032/1754 SLP131 T01611022 10167 20044 58017
TAF KCOS 201741Z 2018/2118 19017G27KT P6SM SCT200 FM210300 15010KT P6SM SKC FM210600 11006KT P6SM SKC FM211500 16008KT P6SM SCT200